Dubrovnik, Hrvatska

10:51 PM CEST on Srpanj 29, 2014 (GMT +0200)
Cilipi (LDDU) Elev 541 ft | 42.56 °N, 18.27 °E | Change Station

Current weather conditions updated 21 minutes ago

Clear
Vedro
72 °F
Feels Like 72 °F
S
7
Vjetar Varijabla smjera vjetra Vjetar from IJI

Tomorrow is forecast to be nearly the same temperature as today. Popodne razvoj grmljavinskog nevremena..

Danas
High -- | Low -- °F
--% Chance of Precip.
Jučer
High -- | Low -- °F
Precip. -- u
5:35 AM 8:10 PM
Prva četvrt, 8% visible
Pritisak 29.83 u
Vidljivost -9999.0 milja
Oblaci
Točka rose 64 °F
Vlažnost 78%
Kiša 0.00 u
Visina snijega Not available.
UV Not available.
Pollen Not available.
Kvalitet zraka Not available.
Flu Activity Not available.
METAR LDDU 292030Z 11006KT CAVOK 22/18 Q1010 NOSIG

More Conditions Fewer Conditions

Pritisak 29.83 u
Vidljivost -9999.0 milja
Oblaci
Točka rose 64 °F
Vlažnost 78%
Kiša 0.00 u
Visina snijega Not available.
UV Not available.
Pollen Not available.
Kvalitet zraka Not available.
Flu Activity Not available.
METAR LDDU 292030Z 11006KT CAVOK 22/18 Q1010 NOSIG

More Conditions Fewer Conditions

10-Day Weather Forecast

Almanac

Astronomija

Jul. 29, 2014 Izlazak Zalazak
Trenutno vrijeme 5:35 AM CEST 8:10 PM CEST
Civilni sumrak 5:03 AM CEST 8:42 PM CEST
Nautički sumrak 4:22 AM CEST 9:23 PM CEST
Astronomski sumrak 3:37 AM CEST 10:08 PM CEST
Moon 7:59 AM CEST 9:09 PM CEST
Duljina trajanja vidljive svjetlosti 15h 39m
Duljina dana
14h 35m
Tomorrow will be 2m 6s shorter.
Prva četvrt, 8% of the Moon is Illuminated
Danas
Prva četvrt
Kol 3
Prva četvrtina
Kol 10
Pun mjesec
Kol 17
Zadnja četvrt
Kol 25
New

Današnji ekstremi

Country Highs Country Lows

Community

WunderPhotos

Upload Photos

1,738,859 photos uploaded!

Nearby

Kvalitet zraka

Not available.

Visina snijega

Not available.

Earthquake Activity

Grad Distance Mag. Time & Date
No recent earthquake activity has been reported nearby.
Minimum magnitude displayed is 2.5.

Coastal Water Temperatures

Mjesto Temperatura
No Stations Reporting

Nearby Weather Stations

Lokacija stanice Temp. Toplotni indeks Točka rose Vlažnost Vjetar Precip. Elev Ažurirano Tip
Mandaljena 67.8 °F - 62 °F 81% Istok  na  0.0 mph 0.00 u / hr 118 ft 10:51 PM CEST Automatsko ažuriranje podataka
HercegNoviSkupstina, Herceg Novi 74.7 °F 76 °F - 76% Zapad  na  0.4 mph - / hr 98 ft 10:50 PM CEST Normalno

Show More Stations Show Fewer Stations